createdAt,value
2022-10-21T00:01:52.140Z,10.84
2022-10-21T00:04:18.778Z,10.83
2022-10-21T00:06:46.914Z,10.81
2022-10-21T00:09:13.783Z,10.83
2022-10-21T00:11:40.571Z,10.87
2022-10-21T00:14:07.250Z,10.88
2022-10-21T00:16:34.292Z,10.87
2022-10-21T00:19:00.945Z,10.86
2022-10-21T00:21:27.650Z,10.90
2022-10-21T00:23:54.905Z,10.86
2022-10-21T00:26:22.044Z,10.85
2022-10-21T00:28:48.695Z,10.89
2022-10-21T00:31:16.507Z,10.95
2022-10-21T00:33:43.506Z,10.96
2022-10-21T00:36:15.378Z,11.02
2022-10-21T00:38:45.209Z,11.07
2022-10-21T00:41:14.027Z,11.07
2022-10-21T00:44:02.087Z,11.11
2022-10-21T00:46:47.190Z,11.11
2022-10-21T00:49:37.589Z,11.08
2022-10-21T00:52:08.742Z,11.09
2022-10-21T00:54:36.554Z,11.13
2022-10-21T00:57:03.601Z,11.16
2022-10-21T00:59:35.929Z,11.16
2022-10-21T01:02:03.484Z,11.17
2022-10-21T01:04:30.524Z,11.14
2022-10-21T01:06:57.530Z,11.17
2022-10-21T01:09:26.006Z,11.21
2022-10-21T01:11:53.025Z,11.26
2022-10-21T01:14:54.269Z,11.30
2022-10-21T01:17:47.697Z,11.30
2022-10-21T01:21:00.809Z,11.31
2022-10-21T01:23:30.441Z,11.31
2022-10-21T01:26:19.092Z,11.35
2022-10-21T01:29:00.929Z,11.37
2022-10-21T01:31:46.321Z,11.40
2022-10-21T01:34:28.395Z,11.42
2022-10-21T01:37:08.560Z,11.47
2022-10-21T01:40:16.953Z,11.50
2022-10-21T01:42:54.266Z,11.48
2022-10-21T01:45:44.069Z,11.47
2022-10-21T01:48:16.213Z,11.42
2022-10-21T01:50:46.158Z,11.37
2022-10-21T01:53:15.982Z,11.30
2022-10-21T01:55:45.274Z,11.26
2022-10-21T01:58:18.402Z,11.29
2022-10-21T02:00:48.096Z,11.31
2022-10-21T02:03:20.131Z,11.40
2022-10-21T02:05:47.087Z,11.45
2022-10-21T02:08:13.922Z,11.51
2022-10-21T02:10:49.380Z,11.48
2022-10-21T02:13:22.877Z,11.44
2022-10-21T02:15:53.210Z,11.43
2022-10-21T02:18:24.047Z,11.46
2022-10-21T02:20:56.264Z,11.49
2022-10-21T02:23:38.138Z,11.54
2022-10-21T02:26:05.250Z,11.59
2022-10-21T02:28:32.810Z,11.57
2022-10-21T02:31:19.672Z,11.60
2022-10-21T02:34:30.298Z,11.59
2022-10-21T02:37:34.646Z,11.58
2022-10-21T02:40:07.451Z,11.57
2022-10-21T02:42:40.171Z,11.59
2022-10-21T02:45:08.911Z,11.64
2022-10-21T02:47:40.484Z,11.80
2022-10-21T02:50:07.857Z,11.90
2022-10-21T02:52:34.547Z,11.96
2022-10-21T02:55:01.181Z,11.97
2022-10-21T02:57:27.865Z,11.96
2022-10-21T02:59:54.480Z,11.98
2022-10-21T03:02:21.237Z,11.97
2022-10-21T03:04:47.867Z,11.95
2022-10-21T03:07:14.865Z,11.96
2022-10-21T03:09:41.790Z,12.04
2022-10-21T03:12:08.457Z,11.79
2022-10-21T03:14:35.158Z,11.58
2022-10-21T03:17:01.815Z,11.46
2022-10-21T03:19:28.724Z,11.48
2022-10-21T03:21:55.399Z,11.50
2022-10-21T03:24:28.480Z,11.52
2022-10-21T03:26:56.313Z,11.56
2022-10-21T03:29:23.050Z,11.48
2022-10-21T03:31:49.717Z,11.37
2022-10-21T03:34:16.439Z,11.34
2022-10-21T03:36:43.146Z,11.38
2022-10-21T03:39:11.446Z,11.45
2022-10-21T03:41:38.331Z,11.51
2022-10-21T03:44:05.182Z,11.58
2022-10-21T03:46:32.198Z,11.65
2022-10-21T03:49:02.841Z,11.71
2022-10-21T03:51:32.525Z,11.74
2022-10-21T03:53:59.180Z,11.77
2022-10-21T03:56:26.141Z,11.76
2022-10-21T03:58:56.367Z,11.74
2022-10-21T04:01:25.762Z,11.73
2022-10-21T04:03:52.500Z,11.69
2022-10-21T04:06:19.185Z,11.62
2022-10-21T04:08:45.977Z,11.51
2022-10-21T04:11:12.676Z,11.48
2022-10-21T04:13:39.371Z,11.46
2022-10-21T04:16:08.057Z,11.50
2022-10-21T04:18:34.794Z,11.58
2022-10-21T04:21:01.741Z,11.59
2022-10-21T04:23:28.519Z,11.50
2022-10-21T04:25:55.162Z,11.44
2022-10-21T04:28:21.834Z,11.32
2022-10-21T04:30:49.882Z,11.24
2022-10-21T04:33:16.588Z,11.27
2022-10-21T04:35:43.299Z,11.28
2022-10-21T04:38:10.069Z,11.27
2022-10-21T04:40:36.702Z,11.26
2022-10-21T04:43:03.856Z,11.28
2022-10-21T04:45:30.748Z,11.22
2022-10-21T04:47:57.415Z,11.23
2022-10-21T04:50:24.110Z,11.26
2022-10-21T04:52:51.748Z,11.23
2022-10-21T04:55:18.362Z,11.24
2022-10-21T04:57:45.004Z,11.27
2022-10-21T05:00:12.142Z,11.29
2022-10-21T05:02:39.029Z,11.32
2022-10-21T05:05:06.350Z,11.34
2022-10-21T05:07:33.059Z,11.35
2022-10-21T05:09:59.673Z,11.39
2022-10-21T05:12:26.329Z,11.43
2022-10-21T05:14:53.082Z,11.50
2022-10-21T05:17:19.747Z,11.56
2022-10-21T05:19:46.338Z,11.61
2022-10-21T05:22:13.033Z,11.67
2022-10-21T05:24:39.664Z,11.76
2022-10-21T05:27:06.324Z,11.82
2022-10-21T05:29:32.990Z,11.88
2022-10-21T05:31:59.665Z,11.94
2022-10-21T05:34:26.381Z,11.94
2022-10-21T05:36:53.250Z,11.95
2022-10-21T05:39:20.016Z,11.93
2022-10-21T05:41:48.034Z,11.89
2022-10-21T05:44:15.091Z,11.90
2022-10-21T05:46:41.772Z,11.91
2022-10-21T05:49:08.608Z,11.90
2022-10-21T05:51:35.477Z,11.89
2022-10-21T05:54:03.944Z,11.86
2022-10-21T05:56:30.602Z,11.87
2022-10-21T05:58:57.259Z,11.83
2022-10-21T06:01:24.023Z,11.80
2022-10-21T06:03:50.718Z,11.81
2022-10-21T06:06:18.089Z,11.82
2022-10-21T06:08:45.401Z,11.78
2022-10-21T06:11:16.189Z,11.75
2022-10-21T06:13:43.255Z,11.79
2022-10-21T06:16:12.346Z,11.81
2022-10-21T06:18:40.362Z,11.83
2022-10-21T06:21:07.905Z,11.86
2022-10-21T06:23:34.917Z,11.88
2022-10-21T06:26:13.127Z,11.94
2022-10-21T06:28:42.716Z,11.98
2022-10-21T06:31:16.011Z,12.02
2022-10-21T06:33:42.980Z,12.12
2022-10-21T06:36:10.328Z,12.21
2022-10-21T06:38:37.758Z,12.24
2022-10-21T06:41:10.552Z,12.29
2022-10-21T06:43:40.230Z,12.33
2022-10-21T06:46:10.021Z,12.32
2022-10-21T06:48:37.018Z,12.27
2022-10-21T06:51:06.825Z,12.17
2022-10-21T06:53:36.591Z,12.07
2022-10-21T06:56:08.859Z,12.08
2022-10-21T06:58:37.195Z,12.10
2022-10-21T07:01:27.248Z,12.15
2022-10-21T07:03:58.662Z,12.16
2022-10-21T07:06:25.568Z,12.15
2022-10-21T07:08:59.576Z,12.16
2022-10-21T07:11:27.770Z,12.17
2022-10-21T07:13:54.942Z,12.18
2022-10-21T07:16:30.898Z,12.20
2022-10-21T07:18:58.074Z,12.24
2022-10-21T07:21:27.279Z,12.28
2022-10-21T07:23:57.932Z,12.33
2022-10-21T07:26:28.851Z,12.34
2022-10-21T07:28:58.222Z,12.38
2022-10-21T07:31:25.501Z,12.36
2022-10-21T07:33:52.599Z,12.37
2022-10-21T07:36:25.412Z,12.33
2022-10-21T07:38:54.097Z,12.41
2022-10-21T07:41:35.530Z,12.43
2022-10-21T07:44:02.809Z,12.47
2022-10-21T07:46:29.741Z,12.47
2022-10-21T07:48:56.575Z,12.50
2022-10-21T07:51:28.553Z,12.51
2022-10-21T07:53:58.494Z,12.54
2022-10-21T07:56:31.574Z,12.57
2022-10-21T07:58:58.458Z,12.57
2022-10-21T08:01:25.540Z,12.59
2022-10-21T08:03:54.921Z,12.62
2022-10-21T08:06:22.835Z,12.62
2022-10-21T08:08:49.593Z,12.70
2022-10-21T08:11:27.605Z,12.80
2022-10-21T08:13:55.321Z,12.84
2022-10-21T08:16:22.634Z,12.86
2022-10-21T08:18:49.679Z,12.89
2022-10-21T08:21:16.954Z,12.94
2022-10-21T08:23:43.787Z,12.94
2022-10-21T08:26:13.066Z,12.92
2022-10-21T08:28:40.163Z,12.90
2022-10-21T08:31:10.184Z,12.90
2022-10-21T08:33:37.608Z,12.90
2022-10-21T08:36:14.125Z,12.95
2022-10-21T08:38:40.829Z,12.96
2022-10-21T08:41:31.901Z,13.02
2022-10-21T08:44:46.842Z,13.11
2022-10-21T08:47:20.818Z,13.18
2022-10-21T08:50:01.759Z,13.28
2022-10-21T08:52:43.144Z,13.37
2022-10-21T08:55:33.069Z,13.45
2022-10-21T08:58:00.645Z,13.50
2022-10-21T09:00:45.775Z,13.59
2022-10-21T09:03:33.975Z,13.67
2022-10-21T09:06:19.873Z,13.69
2022-10-21T09:09:05.371Z,13.72
2022-10-21T09:12:02.548Z,13.74
2022-10-21T09:14:41.238Z,13.75
2022-10-21T09:17:44.395Z,13.81
2022-10-21T09:20:56.044Z,13.77
2022-10-21T09:23:41.924Z,13.82
2022-10-21T09:26:29.452Z,13.82
2022-10-21T09:28:57.316Z,13.68
2022-10-21T09:31:24.107Z,13.65
2022-10-21T09:33:57.064Z,13.67
2022-10-21T09:36:47.712Z,13.59
2022-10-21T09:39:33.852Z,13.55
2022-10-21T09:42:03.798Z,13.53
2022-10-21T09:44:38.747Z,13.59
2022-10-21T09:47:23.319Z,13.58
2022-10-21T09:50:13.532Z,13.62
2022-10-21T09:52:44.932Z,13.59
2022-10-21T09:55:15.468Z,13.54
2022-10-21T09:58:05.868Z,13.59
2022-10-21T10:00:46.943Z,13.60
2022-10-21T10:03:30.021Z,13.63
2022-10-21T10:05:57.278Z,13.73
2022-10-21T10:08:35.651Z,14.10
2022-10-21T10:11:13.538Z,14.24
2022-10-21T10:13:52.819Z,14.23
2022-10-21T10:16:24.275Z,14.29
2022-10-21T10:18:59.930Z,14.40
2022-10-21T10:21:26.600Z,14.55
2022-10-21T10:23:55.350Z,14.67
2022-10-21T10:26:42.879Z,14.68
2022-10-21T10:29:28.012Z,14.68
2022-10-21T10:32:01.012Z,14.74
2022-10-21T10:34:35.105Z,14.81
2022-10-21T10:37:07.227Z,14.86
2022-10-21T10:39:38.762Z,14.90
2022-10-21T10:42:07.425Z,14.90
2022-10-21T10:44:38.645Z,14.98
2022-10-21T10:47:08.099Z,15.05
2022-10-21T10:49:39.519Z,15.07
2022-10-21T10:52:12.208Z,15.12
2022-10-21T10:54:40.634Z,15.18
2022-10-21T10:57:17.384Z,15.23
2022-10-21T10:59:52.277Z,15.24
2022-10-21T11:02:25.976Z,15.21
2022-10-21T11:05:28.585Z,15.21
2022-10-21T11:07:57.691Z,15.23
2022-10-21T11:10:33.397Z,15.26
2022-10-21T11:13:03.039Z,15.28
2022-10-21T11:15:47.508Z,15.29
2022-10-21T11:18:25.666Z,15.30
2022-10-21T11:21:18.490Z,15.32
2022-10-21T11:24:06.002Z,15.34
2022-10-21T11:26:38.753Z,15.36
2022-10-21T11:29:36.752Z,15.38
2022-10-21T11:32:18.660Z,15.35
2022-10-21T11:35:15.863Z,15.32
2022-10-21T11:38:01.224Z,15.28
2022-10-21T11:40:40.120Z,15.25
2022-10-21T11:43:21.900Z,15.24
2022-10-21T11:45:56.169Z,15.20
2022-10-21T11:48:36.293Z,15.16
2022-10-21T11:51:11.530Z,15.16
2022-10-21T11:53:49.897Z,15.17
2022-10-21T11:57:00.858Z,15.19
2022-10-21T11:59:55.253Z,15.34
2022-10-21T12:02:44.608Z,15.55
2022-10-21T12:05:41.675Z,15.80
2022-10-21T12:08:43.236Z,15.93
2022-10-21T12:11:20.793Z,16.05
2022-10-21T12:14:31.608Z,16.25
2022-10-21T12:17:02.351Z,16.32
2022-10-21T12:19:29.283Z,16.33
2022-10-21T12:21:56.196Z,16.35
2022-10-21T12:24:34.775Z,16.36
2022-10-21T12:27:32.532Z,16.39
2022-10-21T12:30:13.059Z,16.38
2022-10-21T12:32:46.031Z,16.35
2022-10-21T12:35:25.222Z,16.23
2022-10-21T12:37:51.854Z,16.27
2022-10-21T12:40:27.626Z,16.36
2022-10-21T12:42:59.693Z,16.41
2022-10-21T12:45:32.968Z,16.41
2022-10-21T12:48:00.881Z,16.44
2022-10-21T12:50:30.926Z,16.45
2022-10-21T12:53:24.590Z,16.39
2022-10-21T12:55:59.002Z,16.37
2022-10-21T12:58:34.262Z,16.30
2022-10-21T13:01:03.089Z,16.27
2022-10-21T13:03:44.991Z,16.27
2022-10-21T13:06:12.943Z,16.24
2022-10-21T13:08:55.331Z,16.20
2022-10-21T13:11:39.946Z,16.17
2022-10-21T13:14:19.057Z,16.16
2022-10-21T13:16:45.934Z,16.12
2022-10-21T13:19:15.687Z,16.15
2022-10-21T13:21:44.268Z,16.16
2022-10-21T13:24:16.235Z,16.26
2022-10-21T13:27:03.017Z,16.37
2022-10-21T13:29:38.624Z,16.51
2022-10-21T13:32:15.291Z,16.44
2022-10-21T13:34:49.043Z,16.37
2022-10-21T13:37:24.114Z,16.36
2022-10-21T13:39:52.013Z,16.30
2022-10-21T13:42:24.102Z,16.37
2022-10-21T13:44:57.599Z,16.48
2022-10-21T13:47:30.995Z,16.52
2022-10-21T13:50:09.730Z,16.54
2022-10-21T13:52:36.385Z,16.50
2022-10-21T13:55:04.915Z,16.53
2022-10-21T13:57:33.401Z,16.55
2022-10-21T14:00:17.268Z,16.55
2022-10-21T14:02:59.325Z,16.53
2022-10-21T14:05:30.337Z,16.42
2022-10-21T14:07:57.195Z,16.38
2022-10-21T14:10:24.345Z,16.32
2022-10-21T14:12:51.564Z,16.26
2022-10-21T14:15:22.598Z,16.24
2022-10-21T14:17:55.356Z,16.22
2022-10-21T14:20:37.018Z,16.24
2022-10-21T14:23:07.073Z,16.22
2022-10-21T14:25:33.995Z,16.20
2022-10-21T14:28:02.299Z,16.19
2022-10-21T14:30:31.979Z,16.17
2022-10-21T14:33:03.329Z,16.19
2022-10-21T14:35:31.429Z,16.17
2022-10-21T14:38:00.851Z,16.15
2022-10-21T14:40:31.826Z,16.13
2022-10-21T14:43:17.010Z,16.08
2022-10-21T14:45:53.831Z,16.02
2022-10-21T14:48:37.476Z,15.98
2022-10-21T14:51:11.288Z,15.97
2022-10-21T14:53:47.317Z,15.95
2022-10-21T14:56:30.004Z,15.87
2022-10-21T14:58:59.386Z,15.84
2022-10-21T15:01:27.026Z,15.82
2022-10-21T15:03:57.345Z,15.77
2022-10-21T15:06:27.763Z,15.77
2022-10-21T15:09:26.866Z,15.79
2022-10-21T15:11:53.582Z,15.74
2022-10-21T15:14:28.646Z,15.76
2022-10-21T15:17:01.680Z,15.70
2022-10-21T15:19:45.183Z,15.64
2022-10-21T15:22:29.580Z,15.55
2022-10-21T15:25:05.662Z,15.51
2022-10-21T15:27:40.131Z,15.46
2022-10-21T15:30:15.441Z,15.43
2022-10-21T15:32:42.392Z,15.38
2022-10-21T15:35:20.883Z,15.36
2022-10-21T15:37:51.396Z,15.32
2022-10-21T15:40:19.735Z,15.29
2022-10-21T15:42:47.660Z,15.23
2022-10-21T15:45:22.088Z,15.17
2022-10-21T15:47:54.101Z,15.15
2022-10-21T15:50:22.203Z,15.03
2022-10-21T15:52:49.109Z,14.96
2022-10-21T15:55:15.992Z,14.90
2022-10-21T15:57:42.938Z,14.86
2022-10-21T16:00:19.155Z,14.79
2022-10-21T16:02:47.623Z,14.74
2022-10-21T16:05:14.894Z,14.71
2022-10-21T16:07:42.580Z,14.68
2022-10-21T16:10:30.549Z,14.65
2022-10-21T16:12:58.345Z,14.59
2022-10-21T16:15:25.499Z,14.54
2022-10-21T16:17:56.036Z,14.53
2022-10-21T16:20:26.087Z,14.47
2022-10-21T16:22:53.278Z,14.45
2022-10-21T16:25:20.478Z,14.39
2022-10-21T16:28:02.976Z,14.39
2022-10-21T16:30:34.103Z,14.33
2022-10-21T16:33:00.845Z,14.32
2022-10-21T16:35:27.582Z,14.31
2022-10-21T16:37:55.697Z,14.28
2022-10-21T16:40:31.807Z,14.27
2022-10-21T16:42:58.778Z,14.27
2022-10-21T16:45:30.208Z,14.25
2022-10-21T16:47:59.330Z,14.26
2022-10-21T16:50:36.858Z,14.25
2022-10-21T16:53:04.661Z,14.24
2022-10-21T16:55:31.359Z,14.27
2022-10-21T16:57:58.062Z,14.26
2022-10-21T17:00:24.745Z,14.26
2022-10-21T17:02:52.470Z,14.27
2022-10-21T17:05:19.276Z,14.25
2022-10-21T17:07:46.065Z,14.24
2022-10-21T17:10:13.137Z,14.20
2022-10-21T17:12:40.052Z,14.17
2022-10-21T17:15:07.249Z,14.19
2022-10-21T17:17:34.132Z,14.19
2022-10-21T17:20:00.756Z,14.19
2022-10-21T17:22:27.484Z,14.18
2022-10-21T17:24:54.150Z,14.15
2022-10-21T17:27:21.723Z,14.15
2022-10-21T17:29:48.362Z,14.16
2022-10-21T17:32:15.124Z,14.16
2022-10-21T17:34:41.829Z,14.16
2022-10-21T17:37:10.367Z,14.17
2022-10-21T17:39:37.020Z,14.15
2022-10-21T17:42:03.774Z,14.11
2022-10-21T17:44:30.645Z,14.08
2022-10-21T17:46:57.405Z,14.06
2022-10-21T17:49:26.216Z,14.06
2022-10-21T17:51:53.004Z,14.04
2022-10-21T17:54:22.897Z,14.07
2022-10-21T17:56:53.469Z,14.06
2022-10-21T17:59:20.113Z,14.05
2022-10-21T18:01:46.974Z,14.03
2022-10-21T18:04:14.221Z,14.01
2022-10-21T18:06:41.339Z,13.99
2022-10-21T18:09:08.728Z,13.99
2022-10-21T18:11:36.588Z,13.99
2022-10-21T18:14:05.117Z,14.00
2022-10-21T18:16:32.270Z,13.99
2022-10-21T18:19:01.983Z,13.96
2022-10-21T18:21:30.496Z,13.96
2022-10-21T18:23:57.835Z,13.95
2022-10-21T18:26:27.186Z,13.92
2022-10-21T18:28:59.700Z,13.90
2022-10-21T18:31:29.928Z,13.89
2022-10-21T18:33:57.751Z,13.89
2022-10-21T18:36:25.291Z,13.87
2022-10-21T18:38:51.947Z,13.84
2022-10-21T18:41:20.986Z,13.83
2022-10-21T18:43:50.393Z,13.74
2022-10-21T18:46:17.576Z,13.71
2022-10-21T18:48:44.355Z,13.69
2022-10-21T18:51:12.943Z,13.70
2022-10-21T18:53:39.950Z,13.69
2022-10-21T18:56:09.506Z,13.66
2022-10-21T18:58:37.645Z,13.60
2022-10-21T19:01:04.953Z,13.53
2022-10-21T19:03:32.337Z,13.55
2022-10-21T19:06:16.722Z,13.55
2022-10-21T19:08:43.616Z,13.55
2022-10-21T19:11:10.367Z,13.53
2022-10-21T19:13:37.091Z,13.52
2022-10-21T19:16:03.979Z,13.53
2022-10-21T19:18:30.677Z,13.53
2022-10-21T19:20:57.348Z,13.51
2022-10-21T19:23:24.048Z,13.51
2022-10-21T19:25:50.679Z,13.51
2022-10-21T19:28:17.339Z,13.53
2022-10-21T19:30:45.663Z,13.55
2022-10-21T19:33:12.315Z,13.58
2022-10-21T19:35:39.000Z,13.60
2022-10-21T19:38:11.536Z,13.61
2022-10-21T19:40:42.555Z,13.64
2022-10-21T19:43:09.655Z,13.68
2022-10-21T19:45:37.335Z,13.70
2022-10-21T19:48:04.312Z,13.70
2022-10-21T19:50:30.957Z,13.73
2022-10-21T19:52:57.757Z,13.78
2022-10-21T19:55:24.463Z,13.83
2022-10-21T19:57:51.127Z,13.83
2022-10-21T20:00:17.820Z,13.87
2022-10-21T20:02:44.514Z,13.90
2022-10-21T20:05:11.137Z,13.86
2022-10-21T20:07:38.701Z,13.90
2022-10-21T20:10:06.282Z,13.91
2022-10-21T20:12:33.004Z,13.88
2022-10-21T20:14:59.652Z,13.86
2022-10-21T20:17:26.402Z,13.87
2022-10-21T20:19:53.074Z,13.85
2022-10-21T20:22:19.774Z,13.87
2022-10-21T20:24:46.670Z,13.87
2022-10-21T20:27:13.591Z,13.85
2022-10-21T20:29:40.211Z,13.87
2022-10-21T20:32:06.989Z,13.84
2022-10-21T20:34:34.020Z,13.82
2022-10-21T20:37:04.104Z,13.72
2022-10-21T20:39:31.042Z,13.83
2022-10-21T20:41:57.716Z,13.82
2022-10-21T20:44:24.444Z,13.82
2022-10-21T20:46:51.114Z,13.77
2022-10-21T20:49:17.775Z,13.79
2022-10-21T20:51:44.491Z,13.76
2022-10-21T20:54:17.634Z,13.78
2022-10-21T20:56:45.108Z,13.71
2022-10-21T20:59:17.126Z,13.76
2022-10-21T21:01:45.385Z,13.75
2022-10-21T21:04:15.648Z,13.74
2022-10-21T21:06:45.419Z,13.72
2022-10-21T21:12:02.843Z,13.63
2022-10-21T21:14:30.030Z,13.72
2022-10-21T21:16:56.735Z,13.68
2022-10-21T21:19:24.241Z,13.74
2022-10-21T21:21:50.890Z,13.70
2022-10-21T21:24:17.506Z,13.69
2022-10-21T21:26:44.160Z,13.62
2022-10-21T21:29:10.790Z,13.67
2022-10-21T21:31:39.245Z,13.69
2022-10-21T21:34:07.136Z,13.68
2022-10-21T21:36:34.084Z,13.63
2022-10-21T21:39:00.891Z,13.59
2022-10-21T21:41:27.602Z,13.62
2022-10-21T21:43:56.816Z,13.62
2022-10-21T21:46:24.301Z,13.62
2022-10-21T21:49:05.194Z,13.54
2022-10-21T21:51:35.182Z,13.56
2022-10-21T21:54:02.454Z,13.53
2022-10-21T21:56:29.331Z,13.50
2022-10-21T21:58:57.886Z,13.45
2022-10-21T22:01:27.449Z,13.48
2022-10-21T22:03:54.749Z,13.44
2022-10-21T22:08:56.537Z,13.47
2022-10-21T22:11:25.362Z,13.41
2022-10-21T22:13:52.668Z,13.26
2022-10-21T22:16:22.170Z,13.24
2022-10-21T22:18:49.243Z,13.30
2022-10-21T22:21:18.027Z,13.29
2022-10-21T22:23:45.371Z,13.24
2022-10-21T22:26:14.166Z,13.29
2022-10-21T22:28:41.502Z,13.29
2022-10-21T22:31:14.387Z,13.27
2022-10-21T22:36:09.042Z,13.28
2022-10-21T22:38:35.722Z,13.24
2022-10-21T22:41:07.064Z,13.26
2022-10-21T22:43:35.187Z,13.27
2022-10-21T22:46:09.774Z,13.26
2022-10-21T22:48:48.064Z,13.24
2022-10-21T22:51:14.775Z,13.15
2022-10-21T22:53:41.689Z,13.06
2022-10-21T22:56:08.378Z,13.13
2022-10-21T22:58:35.327Z,13.16
2022-10-21T23:01:07.247Z,13.17
2022-10-21T23:03:34.012Z,13.22
2022-10-21T23:06:00.802Z,13.19
2022-10-21T23:08:27.495Z,13.20
2022-10-21T23:10:54.492Z,13.17
2022-10-21T23:13:21.190Z,13.18
2022-10-21T23:15:48.102Z,13.14
2022-10-21T23:18:14.993Z,13.12
2022-10-21T23:20:42.003Z,13.10
2022-10-21T23:23:09.796Z,13.12
2022-10-21T23:25:36.472Z,13.07
2022-10-21T23:28:03.920Z,13.12
2022-10-21T23:30:32.015Z,13.10
2022-10-21T23:32:58.713Z,13.13
2022-10-21T23:35:25.458Z,13.11
2022-10-21T23:37:52.252Z,13.02
2022-10-21T23:40:18.999Z,13.03
2022-10-21T23:42:45.647Z,12.93
2022-10-21T23:45:12.514Z,12.75
2022-10-21T23:47:40.258Z,12.62
2022-10-21T23:50:08.303Z,12.58
2022-10-21T23:52:36.140Z,12.53
2022-10-21T23:55:04.070Z,12.44
2022-10-21T23:57:30.780Z,12.36
2022-10-21T23:59:57.449Z,12.32
